Time;durP1;ratioP1;P1;durP2;ratioP2;P2;SDS_P1;SDS_P2;PMS_P1;PMS_P2;Temp;Humidity;BMP_temperature;BMP_pressure;BME280_temperature;BME280_humidity;BME280_pressure;Samples;Min_cycle;Max_cycle;Signal;HPM_P1;HPM_P2
2023/04/19 00:00:09;;;;;;;7.20;5.93;;;;;;;;;;8251401;28;20701;-74
2023/04/19 00:04:10;;;;;;;8.25;6.38;;;;;;;;;;8254300;28;20609;-74
2023/04/19 00:08:10;;;;;;;7.32;6.25;;;;;;;;;;8256844;28;20115;-73
2023/04/19 00:12:11;;;;;;;7.43;6.18;;;;;;;;;;8253058;28;20068;-73
2023/04/19 00:16:11;;;;;;;6.88;5.45;;;;;;;;;;8251088;28;20149;-73
2023/04/19 00:20:12;;;;;;;6.60;5.50;;;;;;;;;;8255941;28;20037;-73
2023/04/19 00:24:12;;;;;;;7.43;5.72;;;;;;;;;;8255655;28;21045;-73
2023/04/19 00:28:12;;;;;;;5.97;5.38;;;;;;;;;;8251276;28;20026;-73
2023/04/19 00:32:12;;;;;;;7.28;5.38;;;;;;;;;;8252949;28;20099;-73
2023/04/19 00:36:12;;;;;;;7.35;6.03;;;;;;;;;;8251724;28;20033;-73
2023/04/19 00:40:13;;;;;;;7.40;5.45;;;;;;;;;;8251487;28;20029;-73
2023/04/19 00:44:13;;;;;;;7.13;5.88;;;;;;;;;;8253439;28;20068;-73
2023/04/19 00:48:13;;;;;;;7.45;5.10;;;;;;;;;;8250701;28;20037;-73
2023/04/19 00:52:14;;;;;;;6.25;4.55;;;;;;;;;;8248693;28;20022;-72
2023/04/19 00:56:15;;;;;;;6.03;5.03;;;;;;;;;;8252320;28;20018;-73
2023/04/19 01:00:16;;;;;;;6.72;5.57;;;;;;;;;;8249112;28;20041;-73
2023/04/19 01:04:16;;;;;;;6.45;5.45;;;;;;;;;;8253544;28;20021;-73
2023/04/19 01:08:16;;;;;;;5.25;4.72;;;;;;;;;;8252545;28;20026;-73
2023/04/19 01:12:16;;;;;;;7.65;5.00;;;;;;;;;;8250112;28;20089;-73
2023/04/19 01:16:17;;;;;;;5.78;4.65;;;;;;;;;;8252523;28;20049;-73
2023/04/19 01:20:17;;;;;;;5.43;4.57;;;;;;;;;;8252185;28;20470;-73
2023/04/19 01:24:17;;;;;;;6.38;4.47;;;;;;;;;;8256633;28;20049;-73
2023/04/19 01:28:17;;;;;;;4.78;3.92;;;;;;;;;;8253638;28;20026;-72
2023/04/19 01:32:18;;;;;;;4.78;4.28;;;;;;;;;;8257453;28;20034;-73
2023/04/19 01:36:18;;;;;;;5.35;4.30;;;;;;;;;;8255844;28;20049;-73
2023/04/19 01:40:18;;;;;;;6.85;4.15;;;;;;;;;;8258043;28;20966;-73
2023/04/19 01:44:18;;;;;;;4.57;4.10;;;;;;;;;;8258237;28;20037;-73
2023/04/19 01:48:19;;;;;;;5.68;3.63;;;;;;;;;;8254409;28;20404;-73
2023/04/19 01:52:19;;;;;;;4.15;3.72;;;;;;;;;;8258233;28;20022;-73
2023/04/19 01:56:20;;;;;;;6.68;4.03;;;;;;;;;;8256224;28;20072;-73
2023/04/19 02:00:21;;;;;;;5.57;3.80;;;;;;;;;;8256831;28;20061;-73
2023/04/19 02:04:21;;;;;;;4.05;3.55;;;;;;;;;;8258957;28;20159;-73
2023/04/19 02:08:21;;;;;;;4.07;3.67;;;;;;;;;;8255230;28;20026;-73
2023/04/19 02:12:22;;;;;;;3.95;3.58;;;;;;;;;;8257824;28;20136;-72
2023/04/19 02:16:22;;;;;;;4.90;3.90;;;;;;;;;;8257910;28;20038;-73
2023/04/19 02:20:23;;;;;;;5.50;3.60;;;;;;;;;;8253339;28;20026;-72
2023/04/19 02:24:24;;;;;;;4.07;3.63;;;;;;;;;;8258973;28;20022;-73
2023/04/19 02:28:24;;;;;;;5.65;3.95;;;;;;;;;;8255301;28;20148;-73
2023/04/19 02:32:24;;;;;;;5.28;3.67;;;;;;;;;;8256663;28;20131;-73
2023/04/19 02:36:25;;;;;;;5.22;3.80;;;;;;;;;;8256357;28;20029;-72
2023/04/19 02:40:25;;;;;;;4.15;3.70;;;;;;;;;;8255577;28;20862;-72
2023/04/19 02:44:26;;;;;;;4.28;3.70;;;;;;;;;;8257245;28;20034;-73
2023/04/19 02:48:26;;;;;;;4.20;3.80;;;;;;;;;;8256663;28;20056;-73
2023/04/19 02:52:26;;;;;;;5.15;3.65;;;;;;;;;;8254998;28;20109;-72
2023/04/19 02:56:26;;;;;;;5.55;4.35;;;;;;;;;;8257672;28;20821;-72
2023/04/19 03:00:27;;;;;;;4.35;3.90;;;;;;;;;;8251835;28;20073;-73
2023/04/19 03:04:27;;;;;;;5.38;3.75;;;;;;;;;;8255741;28;20032;-73
2023/04/19 03:08:28;;;;;;;5.18;4.18;;;;;;;;;;8255492;28;20065;-73
2023/04/19 03:12:28;;;;;;;5.65;3.88;;;;;;;;;;8253697;28;20124;-72
2023/04/19 03:16:29;;;;;;;4.90;4.05;;;;;;;;;;8255836;28;20093;-72
2023/04/19 03:20:29;;;;;;;5.00;4.15;;;;;;;;;;8255588;28;20022;-72
2023/04/19 03:24:29;;;;;;;4.82;4.15;;;;;;;;;;8257510;28;20048;-72
2023/04/19 03:28:29;;;;;;;5.78;4.47;;;;;;;;;;8269390;28;20083;-72
2023/04/19 03:32:30;;;;;;;4.70;4.30;;;;;;;;;;8255985;28;20200;-72
2023/04/19 03:36:31;;;;;;;5.50;4.50;;;;;;;;;;8252318;28;20269;-72
2023/04/19 03:40:36;;;;;;;4.50;4.03;;;;;;;;;;8245160;28;21015;-73
2023/04/19 03:44:36;;;;;;;6.05;4.25;;;;;;;;;;8254370;28;20025;-73
2023/04/19 03:48:36;;;;;;;6.00;4.50;;;;;;;;;;8251509;28;20056;-73
2023/04/19 03:52:36;;;;;;;5.45;4.25;;;;;;;;;;8254169;28;20026;-73
2023/04/19 03:56:36;;;;;;;4.57;3.83;;;;;;;;;;8255531;28;20025;-73
2023/04/19 04:00:36;;;;;;;6.75;4.10;;;;;;;;;;8253303;28;21128;-73
2023/04/19 04:04:37;;;;;;;5.55;4.30;;;;;;;;;;8254605;28;20791;-73
2023/04/19 04:08:37;;;;;;;5.53;4.50;;;;;;;;;;8257360;28;20025;-73
2023/04/19 04:12:37;;;;;;;4.65;4.22;;;;;;;;;;8253050;28;20034;-73
2023/04/19 04:16:37;;;;;;;8.25;4.85;;;;;;;;;;8270351;28;20671;-73
2023/04/19 04:20:37;;;;;;;6.18;4.97;;;;;;;;;;8254802;28;20649;-73
2023/04/19 04:24:40;;;;;;;6.22;5.07;;;;;;;;;;8254965;28;20081;-73
2023/04/19 04:28:40;;;;;;;6.65;5.03;;;;;;;;;;8253414;28;20777;-73
2023/04/19 04:32:40;;;;;;;5.57;4.85;;;;;;;;;;8252185;28;20088;-73
2023/04/19 04:36:41;;;;;;;7.63;5.68;;;;;;;;;;8256929;28;20080;-72
2023/04/19 04:40:41;;;;;;;6.93;5.80;;;;;;;;;;8251756;28;20025;-73
2023/04/19 04:44:41;;;;;;;6.75;5.55;;;;;;;;;;8253095;28;20727;-72
2023/04/19 04:48:41;;;;;;;10.55;6.05;;;;;;;;;;8249639;28;20030;-73
2023/04/19 04:52:41;;;;;;;6.53;5.85;;;;;;;;;;8249813;28;20388;-74
2023/04/19 04:56:42;;;;;;;7.85;6.25;;;;;;;;;;8253244;28;20044;-74
2023/04/19 05:00:42;;;;;;;7.70;6.85;;;;;;;;;;8247621;28;20052;-73
2023/04/19 05:04:42;;;;;;;8.55;6.80;;;;;;;;;;8248204;28;20026;-73
2023/04/19 05:08:43;;;;;;;9.65;6.50;;;;;;;;;;8251129;28;20036;-73
2023/04/19 05:12:43;;;;;;;9.52;6.97;;;;;;;;;;8252795;28;20390;-73
2023/04/19 05:16:44;;;;;;;9.25;6.63;;;;;;;;;;8254313;28;20041;-73
2023/04/19 05:20:45;;;;;;;10.80;8.40;;;;;;;;;;8251508;28;20014;-73
2023/04/19 05:24:46;;;;;;;10.73;7.50;;;;;;;;;;8253538;28;20112;-74
2023/04/19 05:28:46;;;;;;;12.63;8.30;;;;;;;;;;8251262;28;20018;-73
2023/04/19 05:32:46;;;;;;;9.40;7.55;;;;;;;;;;8252927;28;20079;-74
2023/04/19 05:36:46;;;;;;;10.32;8.40;;;;;;;;;;8257138;28;20076;-73
2023/04/19 05:40:46;;;;;;;9.85;7.72;;;;;;;;;;8249490;28;20037;-74
2023/04/19 05:44:47;;;;;;;11.32;7.90;;;;;;;;;;8268599;28;20105;-74
2023/04/19 05:48:47;;;;;;;10.85;8.23;;;;;;;;;;8250714;28;20185;-74
2023/04/19 05:52:47;;;;;;;8.98;8.00;;;;;;;;;;8251741;28;20622;-73
2023/04/19 05:56:47;;;;;;;11.05;8.35;;;;;;;;;;8252742;28;20099;-74
2023/04/19 06:00:48;;;;;;;11.93;8.85;;;;;;;;;;8254916;28;20297;-74
2023/04/19 06:04:48;;;;;;;8.88;7.78;;;;;;;;;;8284370;28;20998;-74
2023/04/19 06:08:48;;;;;;;9.20;7.35;;;;;;;;;;8284197;28;20120;-74
2023/04/19 06:12:49;;;;;;;11.70;8.40;;;;;;;;;;8290452;28;20461;-74
2023/04/19 06:16:49;;;;;;;11.60;8.38;;;;;;;;;;8290295;28;20363;-74
2023/04/19 06:20:52;;;;;;;10.00;8.18;;;;;;;;;;8289057;28;20070;-74
2023/04/19 06:24:52;;;;;;;10.52;8.43;;;;;;;;;;8291888;28;20065;-73
2023/04/19 06:28:53;;;;;;;11.63;8.32;;;;;;;;;;8309781;28;20029;-73
2023/04/19 06:32:54;;;;;;;11.10;8.45;;;;;;;;;;8346721;28;20105;-73
2023/04/19 06:36:54;;;;;;;12.77;9.30;;;;;;;;;;8344004;28;20032;-72
2023/04/19 06:40:54;;;;;;;11.75;8.80;;;;;;;;;;8344800;28;20504;-72
2023/04/19 06:44:56;;;;;;;11.02;8.77;;;;;;;;;;8342985;28;20026;-74
2023/04/19 06:48:56;;;;;;;10.27;8.82;;;;;;;;;;8338394;28;20040;-73
2023/04/19 06:52:56;;;;;;;10.95;8.32;;;;;;;;;;8338398;28;20512;-73
2023/04/19 06:56:56;;;;;;;10.93;8.87;;;;;;;;;;8351870;28;20071;-73
2023/04/19 07:00:56;;;;;;;14.37;9.23;;;;;;;;;;8339117;28;20284;-73
2023/04/19 07:04:57;;;;;;;13.05;9.32;;;;;;;;;;8337371;28;20272;-73
2023/04/19 07:09:00;;;;;;;12.60;9.33;;;;;;;;;;8339585;28;20067;-73
2023/04/19 07:13:00;;;;;;;11.23;9.13;;;;;;;;;;8339071;28;20326;-73
2023/04/19 07:17:02;;;;;;;13.10;9.60;;;;;;;;;;8345752;28;20230;-73
2023/04/19 07:21:02;;;;;;;12.15;10.13;;;;;;;;;;8345687;28;20730;-73
2023/04/19 07:25:03;;;;;;;10.73;8.90;;;;;;;;;;8340045;28;20093;-73
2023/04/19 07:29:03;;;;;;;14.02;10.32;;;;;;;;;;8340165;28;20113;-73
2023/04/19 07:33:07;;;;;;;13.35;10.15;;;;;;;;;;8338170;28;20029;-73
2023/04/19 07:37:07;;;;;;;12.85;10.63;;;;;;;;;;8336466;28;20025;-73
2023/04/19 07:41:07;;;;;;;11.82;9.88;;;;;;;;;;8339270;28;20033;-72
2023/04/19 07:45:08;;;;;;;12.95;10.32;;;;;;;;;;8342368;28;20034;-73
2023/04/19 07:49:09;;;;;;;12.38;9.68;;;;;;;;;;8343763;28;20018;-72
2023/04/19 07:53:09;;;;;;;16.23;10.50;;;;;;;;;;8332223;28;20041;-72
2023/04/19 07:57:09;;;;;;;12.25;8.73;;;;;;;;;;8335504;28;20492;-73
2023/04/19 08:01:10;;;;;;;13.73;9.38;;;;;;;;;;8337367;28;20065;-72
2023/04/19 08:05:11;;;;;;;13.80;9.10;;;;;;;;;;8353892;28;20033;-72
2023/04/19 08:09:11;;;;;;;10.02;8.80;;;;;;;;;;8337041;28;20021;-73
2023/04/19 08:13:12;;;;;;;11.15;8.75;;;;;;;;;;8335713;28;20021;-74
2023/04/19 08:17:12;;;;;;;12.98;8.52;;;;;;;;;;8329232;28;20044;-72
2023/04/19 08:21:12;;;;;;;10.57;7.67;;;;;;;;;;8329855;28;20549;-73
2023/04/19 08:25:12;;;;;;;11.30;8.25;;;;;;;;;;8335651;28;20323;-73
2023/04/19 08:29:13;;;;;;;10.43;7.70;;;;;;;;;;8332054;28;20044;-73
2023/04/19 08:33:13;;;;;;;9.13;7.70;;;;;;;;;;8326613;28;20367;-73
2023/04/19 08:37:13;;;;;;;8.85;7.43;;;;;;;;;;8329139;28;20025;-73
2023/04/19 08:41:15;;;;;;;9.35;7.50;;;;;;;;;;8330251;28;20175;-73
2023/04/19 08:45:16;;;;;;;9.10;7.20;;;;;;;;;;8330089;28;20029;-73
2023/04/19 08:49:19;;;;;;;10.98;7.53;;;;;;;;;;8313030;28;20061;-73
2023/04/19 08:53:19;;;;;;;9.13;6.95;;;;;;;;;;8331704;28;20781;-73
2023/04/19 08:57:20;;;;;;;8.27;7.03;;;;;;;;;;8336485;28;20029;-74
2023/04/19 09:01:20;;;;;;;10.70;7.00;;;;;;;;;;8330991;28;20044;-73
2023/04/19 09:05:21;;;;;;;8.23;6.60;;;;;;;;;;8330676;28;20486;-74
2023/04/19 09:09:25;;;;;;;8.27;6.68;;;;;;;;;;8330069;28;20372;-74
2023/04/19 09:13:26;;;;;;;9.43;6.72;;;;;;;;;;8331903;28;20021;-73
2023/04/19 09:17:26;;;;;;;7.72;6.05;;;;;;;;;;8323857;28;20038;-74
2023/04/19 09:21:30;;;;;;;6.27;5.67;;;;;;;;;;8326146;28;20028;-74
2023/04/19 09:25:30;;;;;;;6.32;5.07;;;;;;;;;;8332674;28;20032;-73
2023/04/19 09:29:30;;;;;;;8.13;5.72;;;;;;;;;;8334301;28;20379;-73
2023/04/19 09:33:36;;;;;;;8.50;6.05;;;;;;;;;;8331291;28;20040;-74
2023/04/19 09:37:38;;;;;;;6.85;5.63;;;;;;;;;;8322856;28;20017;-74
2023/04/19 09:41:52;;;;;;;7.10;4.90;;;;;;;;;;8332748;28;20026;-74
2023/04/19 09:45:52;;;;;;;7.18;5.75;;;;;;;;;;8333516;28;20048;-74
2023/04/19 09:50:05;;;;;;;7.68;5.15;;;;;;;;;;8332938;28;20060;-74
2023/04/19 09:54:05;;;;;;;6.15;4.80;;;;;;;;;;8339228;28;20033;-73
2023/04/19 09:58:06;;;;;;;7.10;5.30;;;;;;;;;;8332712;28;20028;-73
2023/04/19 10:02:06;;;;;;;7.72;5.45;;;;;;;;;;8339899;28;20037;-74
2023/04/19 10:06:06;;;;;;;7.45;5.22;;;;;;;;;;8333150;28;20029;-74
2023/04/19 10:10:07;;;;;;;5.07;4.40;;;;;;;;;;8338116;28;20013;-73
2023/04/19 10:14:11;;;;;;;5.47;4.10;;;;;;;;;;8340264;28;20029;-74
2023/04/19 10:18:11;;;;;;;4.70;4.10;;;;;;;;;;8302660;28;20030;-73
2023/04/19 10:22:13;;;;;;;4.77;4.07;;;;;;;;;;8304402;28;20030;-73
2023/04/19 10:26:13;;;;;;;5.05;4.00;;;;;;;;;;8299463;28;20284;-73
2023/04/19 10:30:20;;;;;;;4.78;3.90;;;;;;;;;;8299859;28;20053;-74
2023/04/19 10:34:35;;;;;;;5.53;3.95;;;;;;;;;;8300930;28;20021;-73
2023/04/19 10:38:41;;;;;;;4.30;3.90;;;;;;;;;;8299624;28;20026;-73
2023/04/19 10:43:01;;;;;;;4.72;4.15;;;;;;;;;;8300357;28;20334;-73
2023/04/19 10:47:01;;;;;;;6.10;4.22;;;;;;;;;;8304797;28;20109;-74
2023/04/19 10:51:02;;;;;;;6.78;4.15;;;;;;;;;;8303100;28;20026;-73
2023/04/19 10:55:03;;;;;;;6.05;4.22;;;;;;;;;;8299816;28;20086;-73
2023/04/19 10:59:06;;;;;;;6.85;4.18;;;;;;;;;;8297644;28;20018;-73
2023/04/19 11:03:25;;;;;;;4.47;4.07;;;;;;;;;;8296834;28;20820;-74
2023/04/19 11:07:26;;;;;;;8.32;4.30;;;;;;;;;;8315702;28;20137;-73
2023/04/19 11:11:26;;;;;;;6.20;4.13;;;;;;;;;;8303204;28;20022;-73
2023/04/19 11:15:26;;;;;;;4.97;4.10;;;;;;;;;;8300485;28;20037;-73
2023/04/19 11:19:27;;;;;;;5.18;4.22;;;;;;;;;;8330030;28;20021;-73
2023/04/19 11:23:27;;;;;;;5.45;3.78;;;;;;;;;;8326964;28;20018;-73
2023/04/19 11:27:28;;;;;;;5.03;3.95;;;;;;;;;;8331296;28;20079;-73
2023/04/19 11:31:30;;;;;;;5.97;4.30;;;;;;;;;;8317858;28;20045;-73
2023/04/19 11:35:30;;;;;;;4.95;3.58;;;;;;;;;;8329191;28;20029;-74
2023/04/19 11:39:31;;;;;;;4.03;3.45;;;;;;;;;;8320200;28;20033;-74
2023/04/19 11:43:37;;;;;;;6.03;4.17;;;;;;;;;;8324372;28;20025;-73
2023/04/19 11:47:47;;;;;;;4.30;3.78;;;;;;;;;;8294387;28;20041;-73
2023/04/19 11:51:53;;;;;;;3.95;3.55;;;;;;;;;;8285232;28;20060;-73
2023/04/19 11:55:55;;;;;;;6.10;3.60;;;;;;;;;;8287212;28;20022;-73
2023/04/19 12:00:05;;;;;;;4.20;3.80;;;;;;;;;;8288781;28;20026;-73
2023/04/19 12:04:05;;;;;;;34.40;8.05;;;;;;;;;;8329527;28;20041;-74
2023/04/19 12:08:09;;;;;;;17.00;5.97;;;;;;;;;;8337075;28;20016;-74
2023/04/19 12:12:09;;;;;;;5.47;4.03;;;;;;;;;;8328271;28;20018;-74
2023/04/19 12:16:10;;;;;;;7.03;3.90;;;;;;;;;;8326043;28;20041;-75
2023/04/19 12:20:10;;;;;;;5.38;3.80;;;;;;;;;;8291485;28;20021;-74
2023/04/19 12:24:13;;;;;;;4.75;3.50;;;;;;;;;;8320525;28;20029;-74
2023/04/19 12:28:14;;;;;;;3.88;3.05;;;;;;;;;;8343676;28;20021;-74
2023/04/19 12:32:14;;;;;;;3.63;3.33;;;;;;;;;;8326272;28;20041;-74
2023/04/19 12:36:15;;;;;;;9.93;3.60;;;;;;;;;;8336172;28;20029;-74
2023/04/19 12:40:15;;;;;;;7.38;3.40;;;;;;;;;;8327293;28;20040;-75
2023/04/19 12:44:15;;;;;;;4.93;3.35;;;;;;;;;;8290182;28;20152;-77
2023/04/19 12:48:15;;;;;;;6.30;3.58;;;;;;;;;;8263882;28;20090;-76
2023/04/19 12:52:15;;;;;;;8.80;4.22;;;;;;;;;;8256917;28;20026;-74
2023/04/19 12:56:16;;;;;;;9.45;4.03;;;;;;;;;;8271913;28;20106;-75
2023/04/19 13:00:16;;;;;;;4.15;3.75;;;;;;;;;;8271572;28;20028;-74
2023/04/19 13:04:17;;;;;;;4.47;3.43;;;;;;;;;;8267018;28;20076;-74
2023/04/19 13:08:19;;;;;;;4.00;3.60;;;;;;;;;;8268224;28;20783;-75
2023/04/19 13:12:20;;;;;;;4.13;3.40;;;;;;;;;;8268035;28;20041;-74
2023/04/19 13:16:21;;;;;;;5.72;3.28;;;;;;;;;;8266020;28;20057;-74
2023/04/19 13:20:21;;;;;;;9.10;3.10;;;;;;;;;;8277156;28;20060;-74
2023/04/19 13:24:21;;;;;;;5.03;3.22;;;;;;;;;;8282909;28;20037;-74
2023/04/19 13:28:21;;;;;;;7.47;3.00;;;;;;;;;;8257089;28;20030;-73
2023/04/19 13:32:22;;;;;;;2.90;2.67;;;;;;;;;;8263861;28;20122;-73
2023/04/19 13:36:22;;;;;;;7.72;3.30;;;;;;;;;;8265483;28;20999;-73
2023/04/19 13:40:22;;;;;;;4.25;2.95;;;;;;;;;;8264212;28;20104;-74
2023/04/19 13:44:24;;;;;;;3.90;2.50;;;;;;;;;;8263476;28;20022;-74
2023/04/19 13:48:27;;;;;;;3.22;2.20;;;;;;;;;;8261485;28;20754;-74
2023/04/19 13:52:27;;;;;;;2.70;2.05;;;;;;;;;;8271993;28;20046;-74
2023/04/19 13:56:28;;;;;;;3.53;1.88;;;;;;;;;;8269664;28;20575;-74
2023/04/19 14:00:29;;;;;;;2.08;1.80;;;;;;;;;;8275816;28;20033;-74
2023/04/19 14:04:29;;;;;;;2.80;2.00;;;;;;;;;;8324788;28;20521;-74
2023/04/19 14:08:29;;;;;;;2.53;1.80;;;;;;;;;;8325694;28;21522;-75
2023/04/19 14:12:30;;;;;;;3.42;2.03;;;;;;;;;;8315393;28;20272;-73
2023/04/19 14:16:30;;;;;;;2.78;1.75;;;;;;;;;;8296101;28;20173;-73
2023/04/19 14:20:30;;;;;;;2.60;1.73;;;;;;;;;;8267505;28;22598;-73
2023/04/19 14:24:30;;;;;;;3.08;1.65;;;;;;;;;;8274847;28;20034;-74
2023/04/19 14:28:33;;;;;;;3.65;1.63;;;;;;;;;;8269789;28;20022;-73
2023/04/19 14:32:33;;;;;;;1.92;1.52;;;;;;;;;;8272215;28;20124;-73
2023/04/19 14:36:33;;;;;;;1.90;1.80;;;;;;;;;;8273864;28;20029;-74
2023/04/19 14:40:34;;;;;;;2.03;1.25;;;;;;;;;;8280637;28;20128;-73
2023/04/19 14:44:34;;;;;;;2.63;1.50;;;;;;;;;;8274993;28;20018;-73
2023/04/19 14:48:34;;;;;;;2.13;1.50;;;;;;;;;;8273640;28;20087;-74
2023/04/19 14:52:35;;;;;;;1.30;1.20;;;;;;;;;;8280720;28;20109;-74
2023/04/19 14:56:38;;;;;;;1.80;1.50;;;;;;;;;;8280205;28;20018;-74
2023/04/19 15:00:38;;;;;;;2.38;1.40;;;;;;;;;;8273780;28;20280;-74
2023/04/19 15:04:38;;;;;;;3.05;1.45;;;;;;;;;;8270452;28;20026;-74
2023/04/19 15:08:40;;;;;;;2.75;1.50;;;;;;;;;;8278321;28;20014;-74
2023/04/19 15:12:40;;;;;;;1.30;1.13;;;;;;;;;;8274252;28;20228;-74
2023/04/19 15:16:40;;;;;;;2.13;1.27;;;;;;;;;;8274753;28;20072;-74
2023/04/19 15:20:40;;;;;;;2.83;1.10;;;;;;;;;;8275285;28;20028;-74
2023/04/19 15:24:41;;;;;;;2.95;1.42;;;;;;;;;;8273720;28;20037;-75
2023/04/19 15:28:41;;;;;;;2.40;1.30;;;;;;;;;;8274023;28;21163;-74
2023/04/19 15:32:41;;;;;;;1.75;1.27;;;;;;;;;;8267508;28;20045;-74
2023/04/19 15:36:41;;;;;;;1.23;1.00;;;;;;;;;;8280662;28;20029;-74
2023/04/19 15:40:41;;;;;;;3.42;1.00;;;;;;;;;;8270469;28;20034;-74
2023/04/19 15:44:41;;;;;;;2.00;1.05;;;;;;;;;;8270273;28;20809;-74
2023/04/19 15:48:43;;;;;;;2.78;1.02;;;;;;;;;;8271297;28;20459;-74
2023/04/19 15:52:43;;;;;;;4.47;1.10;;;;;;;;;;8263498;28;20100;-71
2023/04/19 15:56:43;;;;;;;3.28;1.20;;;;;;;;;;8253571;28;20030;-75
2023/04/19 16:00:44;;;;;;;0.80;0.80;;;;;;;;;;8280041;28;20065;-75
2023/04/19 16:04:45;;;;;;;1.55;1.20;;;;;;;;;;8276309;28;20021;-75
2023/04/19 16:08:46;;;;;;;2.20;1.20;;;;;;;;;;8277402;28;20022;-75
2023/04/19 16:12:46;;;;;;;1.10;1.10;;;;;;;;;;8282575;28;20282;-75
2023/04/19 16:16:46;;;;;;;1.48;1.23;;;;;;;;;;8277878;28;20030;-76
2023/04/19 16:20:47;;;;;;;3.20;1.50;;;;;;;;;;8282141;28;20090;-76
2023/04/19 16:24:47;;;;;;;1.50;1.20;;;;;;;;;;8286621;28;20658;-75
2023/04/19 16:28:47;;;;;;;4.40;1.40;;;;;;;;;;8279383;28;20029;-75
2023/04/19 16:32:49;;;;;;;2.95;1.30;;;;;;;;;;8276549;28;20285;-75
2023/04/19 16:36:49;;;;;;;3.90;1.33;;;;;;;;;;8282444;28;20018;-75
2023/04/19 16:40:50;;;;;;;2.60;1.30;;;;;;;;;;8283919;28;20030;-75
2023/04/19 16:44:50;;;;;;;2.10;1.20;;;;;;;;;;8280665;28;20816;-75
2023/04/19 16:48:50;;;;;;;2.42;1.30;;;;;;;;;;8281196;28;20160;-75
2023/04/19 16:52:50;;;;;;;3.25;1.35;;;;;;;;;;8274949;28;20029;-75
2023/04/19 16:56:51;;;;;;;2.42;1.30;;;;;;;;;;8282359;28;20132;-75
2023/04/19 17:00:51;;;;;;;1.47;1.23;;;;;;;;;;8292515;28;20049;-75
2023/04/19 17:04:51;;;;;;;2.28;1.20;;;;;;;;;;8326056;28;20013;-75
2023/04/19 17:08:51;;;;;;;4.57;1.20;;;;;;;;;;8310646;28;20025;-75
2023/04/19 17:12:54;;;;;;;1.55;1.42;;;;;;;;;;8299501;28;20116;-75
2023/04/19 17:16:54;;;;;;;2.15;1.30;;;;;;;;;;8285436;28;21036;-75
2023/04/19 17:20:55;;;;;;;1.92;1.33;;;;;;;;;;8266999;28;20022;-75
2023/04/19 17:24:56;;;;;;;1.65;1.42;;;;;;;;;;8278516;28;20026;-75
2023/04/19 17:28:56;;;;;;;1.40;1.30;;;;;;;;;;8283964;28;20040;-75
2023/04/19 17:32:56;;;;;;;5.17;1.57;;;;;;;;;;8277148;28;20026;-75
2023/04/19 17:36:57;;;;;;;2.35;1.38;;;;;;;;;;8270543;28;20276;-75
2023/04/19 17:40:57;;;;;;;1.27;1.00;;;;;;;;;;8263027;28;20084;-75
2023/04/19 17:44:58;;;;;;;1.95;1.20;;;;;;;;;;8264455;28;20304;-75
2023/04/19 17:48:59;;;;;;;5.57;1.48;;;;;;;;;;8264308;28;21206;-75
2023/04/19 17:52:59;;;;;;;2.45;1.40;;;;;;;;;;8265475;28;20642;-76
2023/04/19 17:57:01;;;;;;;1.50;1.40;;;;;;;;;;8262740;28;20022;-75
2023/04/19 18:01:02;;;;;;;2.15;1.42;;;;;;;;;;8285356;28;20049;-75
2023/04/19 18:05:02;;;;;;;2.28;1.65;;;;;;;;;;8296179;28;20022;-74
2023/04/19 18:09:03;;;;;;;5.90;1.35;;;;;;;;;;8312645;28;20038;-74
2023/04/19 18:13:03;;;;;;;2.47;1.30;;;;;;;;;;8317561;28;20089;-74
2023/04/19 18:17:05;;;;;;;5.73;1.60;;;;;;;;;;8315207;28;20044;-74
2023/04/19 18:21:05;;;;;;;4.43;1.42;;;;;;;;;;8354046;28;20005;-74
2023/04/19 18:25:06;;;;;;;1.25;1.15;;;;;;;;;;8346090;28;20077;-74
2023/04/19 18:29:06;;;;;;;2.90;1.67;;;;;;;;;;8347016;28;20052;-73
2023/04/19 18:33:06;;;;;;;4.35;1.50;;;;;;;;;;8329057;28;20062;-74
2023/04/19 18:37:12;;;;;;;1.88;1.30;;;;;;;;;;8342400;28;20246;-75
2023/04/19 18:41:12;;;;;;;2.83;1.50;;;;;;;;;;8351268;28;20041;-75
2023/04/19 18:45:13;;;;;;;3.30;1.30;;;;;;;;;;8337127;28;20037;-73
2023/04/19 18:49:13;;;;;;;3.20;1.30;;;;;;;;;;8349627;28;20036;-73
2023/04/19 18:53:13;;;;;;;2.95;1.40;;;;;;;;;;8335451;28;20085;-74
2023/04/19 18:57:14;;;;;;;2.33;1.70;;;;;;;;;;8345873;28;20044;-74
2023/04/19 19:01:16;;;;;;;2.97;1.60;;;;;;;;;;8346595;28;20045;-74
2023/04/19 19:05:16;;;;;;;2.72;1.60;;;;;;;;;;8336712;28;20077;-75
2023/04/19 19:09:16;;;;;;;2.22;1.45;;;;;;;;;;8341299;28;20048;-73
2023/04/19 19:13:17;;;;;;;2.03;1.60;;;;;;;;;;8329981;28;20026;-73
2023/04/19 19:17:17;;;;;;;5.57;1.80;;;;;;;;;;8269830;28;20108;-74
2023/04/19 19:21:17;;;;;;;1.73;1.40;;;;;;;;;;8248426;28;20018;-73
2023/04/19 19:25:17;;;;;;;1.80;1.50;;;;;;;;;;8253401;28;20036;-73
2023/04/19 19:29:18;;;;;;;1.88;1.48;;;;;;;;;;8247010;28;20296;-73
2023/04/19 19:33:18;;;;;;;1.77;1.45;;;;;;;;;;8251077;28;20442;-73
2023/04/19 19:37:18;;;;;;;1.90;1.50;;;;;;;;;;8251890;28;20031;-73
2023/04/19 19:41:19;;;;;;;2.28;1.50;;;;;;;;;;8258339;28;21004;-74
2023/04/19 19:45:19;;;;;;;6.25;1.67;;;;;;;;;;8253591;28;20147;-73
2023/04/19 19:49:19;;;;;;;2.55;1.58;;;;;;;;;;8251478;28;20036;-73
2023/04/19 19:53:19;;;;;;;2.38;1.70;;;;;;;;;;8238976;28;20022;-73
2023/04/19 19:57:20;;;;;;;2.20;1.60;;;;;;;;;;8247850;28;20023;-73
2023/04/19 20:01:20;;;;;;;2.13;1.52;;;;;;;;;;8253466;28;20133;-73
2023/04/19 20:05:20;;;;;;;3.53;1.60;;;;;;;;;;8249303;28;20025;-73
2023/04/19 20:09:20;;;;;;;2.20;1.80;;;;;;;;;;8255577;28;20088;-73
2023/04/19 20:13:21;;;;;;;2.65;1.60;;;;;;;;;;8245850;28;20311;-76
2023/04/19 20:17:21;;;;;;;3.43;1.70;;;;;;;;;;8253873;28;20030;-73
2023/04/19 20:21:21;;;;;;;2.00;1.80;;;;;;;;;;8261722;28;21188;-73
2023/04/19 20:25:22;;;;;;;2.30;1.55;;;;;;;;;;8264796;28;20021;-74
2023/04/19 20:29:22;;;;;;;1.95;1.77;;;;;;;;;;8262051;28;20036;-74
2023/04/19 20:33:22;;;;;;;3.08;1.60;;;;;;;;;;8264570;28;20123;-74
2023/04/19 20:37:22;;;;;;;1.60;1.50;;;;;;;;;;8258111;28;20032;-74
2023/04/19 20:41:24;;;;;;;2.15;1.45;;;;;;;;;;8268714;28;20029;-74
2023/04/19 20:45:24;;;;;;;5.35;1.90;;;;;;;;;;8262958;28;20042;-74
2023/04/19 20:49:25;;;;;;;11.10;2.25;;;;;;;;;;8265066;28;20140;-74
2023/04/19 20:53:26;;;;;;;2.00;1.80;;;;;;;;;;8268181;28;20030;-73
2023/04/19 20:57:26;;;;;;;2.80;1.65;;;;;;;;;;8263031;28;20452;-73
2023/04/19 21:01:26;;;;;;;3.03;1.80;;;;;;;;;;8259214;28;20045;-73
2023/04/19 21:05:26;;;;;;;1.88;1.58;;;;;;;;;;8260960;28;20284;-73
2023/04/19 21:09:27;;;;;;;3.60;1.70;;;;;;;;;;8264189;28;20940;-73
2023/04/19 21:13:27;;;;;;;2.83;1.75;;;;;;;;;;8266943;28;20022;-73
2023/04/19 21:17:27;;;;;;;4.10;2.03;;;;;;;;;;8265887;28;20037;-73
2023/04/19 21:21:27;;;;;;;2.03;1.60;;;;;;;;;;8265447;28;20276;-73
2023/04/19 21:25:28;;;;;;;6.43;2.10;;;;;;;;;;8265152;28;20136;-73
2023/04/19 21:29:28;;;;;;;2.00;1.80;;;;;;;;;;8266910;28;20026;-73
2023/04/19 21:33:28;;;;;;;2.25;1.95;;;;;;;;;;8264100;28;20049;-73
2023/04/19 21:37:29;;;;;;;4.00;1.90;;;;;;;;;;8263872;28;20029;-73
2023/04/19 21:41:29;;;;;;;2.70;1.63;;;;;;;;;;8271698;28;20635;-73
2023/04/19 21:45:29;;;;;;;4.95;1.67;;;;;;;;;;8273145;28;20054;-74
2023/04/19 21:49:30;;;;;;;2.83;1.88;;;;;;;;;;8272908;28;20033;-73
2023/04/19 21:53:32;;;;;;;1.92;1.60;;;;;;;;;;8264994;28;20029;-72
2023/04/19 21:57:32;;;;;;;2.22;1.70;;;;;;;;;;8260705;28;20093;-72
2023/04/19 22:01:34;;;;;;;2.30;1.90;;;;;;;;;;8258535;28;20045;-73
2023/04/19 22:05:35;;;;;;;2.20;1.77;;;;;;;;;;8269786;28;20275;-72
2023/04/19 22:09:36;;;;;;;2.30;1.73;;;;;;;;;;8262518;28;20025;-72
2023/04/19 22:13:37;;;;;;;1.85;1.65;;;;;;;;;;8256513;28;20030;-72
2023/04/19 22:17:39;;;;;;;4.15;1.83;;;;;;;;;;8256999;28;20037;-73
2023/04/19 22:21:39;;;;;;;3.40;1.70;;;;;;;;;;8254113;28;20277;-72
2023/04/19 22:25:39;;;;;;;4.53;1.80;;;;;;;;;;8258170;28;20132;-73
2023/04/19 22:29:40;;;;;;;2.93;1.90;;;;;;;;;;8254582;28;20092;-73
2023/04/19 22:33:40;;;;;;;2.00;1.73;;;;;;;;;;8249119;28;20901;-72
2023/04/19 22:37:41;;;;;;;2.10;1.80;;;;;;;;;;8253440;28;20022;-73
2023/04/19 22:41:41;;;;;;;2.53;1.70;;;;;;;;;;8255373;28;20073;-73
2023/04/19 22:45:43;;;;;;;2.20;1.65;;;;;;;;;;8258000;28;20037;-73
2023/04/19 22:49:43;;;;;;;2.42;1.75;;;;;;;;;;8251750;28;20057;-72
2023/04/19 22:53:44;;;;;;;3.47;1.80;;;;;;;;;;8254243;28;20029;-72
2023/04/19 22:57:44;;;;;;;1.95;1.48;;;;;;;;;;8252639;28;20049;-73
2023/04/19 23:01:45;;;;;;;2.35;1.92;;;;;;;;;;8256640;28;21123;-73
2023/04/19 23:05:46;;;;;;;2.40;1.75;;;;;;;;;;8254563;28;20033;-73
2023/04/19 23:09:46;;;;;;;3.63;1.77;;;;;;;;;;8254844;28;20926;-73
2023/04/19 23:13:47;;;;;;;2.00;1.70;;;;;;;;;;8254756;28;20145;-72
2023/04/19 23:17:47;;;;;;;2.15;1.70;;;;;;;;;;8253672;28;20038;-73
2023/04/19 23:21:48;;;;;;;4.75;1.77;;;;;;;;;;8254855;28;20095;-73
2023/04/19 23:25:48;;;;;;;2.03;1.77;;;;;;;;;;8251415;28;20750;-73
2023/04/19 23:29:49;;;;;;;3.35;1.92;;;;;;;;;;8251508;28;20129;-73
2023/04/19 23:33:49;;;;;;;2.80;1.90;;;;;;;;;;8253863;28;20037;-73
2023/04/19 23:37:50;;;;;;;2.28;1.70;;;;;;;;;;8255135;28;20032;-72
2023/04/19 23:41:50;;;;;;;2.72;2.13;;;;;;;;;;8252491;28;20034;-72
2023/04/19 23:45:50;;;;;;;6.32;2.00;;;;;;;;;;8257175;28;20044;-73
2023/04/19 23:49:50;;;;;;;2.85;1.90;;;;;;;;;;8288288;28;20098;-73
2023/04/19 23:53:50;;;;;;;2.13;1.70;;;;;;;;;;8285810;28;20317;-72
2023/04/19 23:57:50;;;;;;;2.15;1.63;;;;;;;;;;8286513;28;20029;-73
